createdAt,value
2023-09-25T00:02:49.222Z,15.19
2023-09-25T00:08:10.965Z,15.27
2023-09-25T00:13:32.708Z,15.30
2023-09-25T00:18:54.521Z,15.32
2023-09-25T00:24:16.352Z,15.27
2023-09-25T00:29:38.074Z,15.30
2023-09-25T00:34:59.785Z,15.33
2023-09-25T00:40:21.570Z,15.33
2023-09-25T00:45:45.340Z,15.26
2023-09-25T00:51:07.334Z,15.29
2023-09-25T00:56:29.484Z,15.21
2023-09-25T01:01:51.249Z,15.28
2023-09-25T01:07:13.121Z,15.24
2023-09-25T01:12:35.175Z,15.25
2023-09-25T01:17:57.266Z,15.22
2023-09-25T01:23:19.080Z,15.21
2023-09-25T01:28:40.769Z,15.04
2023-09-25T01:34:02.665Z,15.19
2023-09-25T01:39:24.427Z,15.17
2023-09-25T01:44:46.189Z,15.22
2023-09-25T01:50:08.260Z,15.23
2023-09-25T01:55:32.231Z,15.25
2023-09-25T02:00:53.991Z,15.20
2023-09-25T02:06:15.762Z,15.20
2023-09-25T02:11:37.948Z,15.10
2023-09-25T02:16:59.689Z,15.02
2023-09-25T02:22:21.467Z,14.96
2023-09-25T02:27:43.313Z,14.85
2023-09-25T02:33:05.319Z,14.74
2023-09-25T02:38:27.067Z,14.64
2023-09-25T02:43:48.768Z,14.63
2023-09-25T02:49:10.484Z,14.59
2023-09-25T02:54:32.361Z,14.53
2023-09-25T02:59:54.155Z,14.37
2023-09-25T03:05:15.880Z,14.30
2023-09-25T03:10:37.995Z,14.20
2023-09-25T03:15:59.819Z,14.18
2023-09-25T03:21:21.664Z,14.09
2023-09-25T03:26:43.354Z,14.07
2023-09-25T03:32:05.066Z,14.07
2023-09-25T03:37:26.854Z,14.04
2023-09-25T03:42:48.554Z,14.01
2023-09-25T03:48:10.379Z,13.95
2023-09-25T03:53:32.203Z,13.89
2023-09-25T03:58:53.902Z,13.90
2023-09-25T04:04:15.744Z,13.97
2023-09-25T04:09:37.554Z,13.87
2023-09-25T04:14:59.310Z,13.95
2023-09-25T04:20:21.230Z,14.03
2023-09-25T04:25:43.011Z,14.13
2023-09-25T04:31:05.710Z,14.15
2023-09-25T04:36:27.585Z,14.14
2023-09-25T04:41:49.314Z,14.15
2023-09-25T04:47:11.013Z,14.10
2023-09-25T04:52:32.765Z,14.14
2023-09-25T04:57:54.526Z,14.14
2023-09-25T05:03:16.411Z,14.23
2023-09-25T05:08:38.909Z,14.33
2023-09-25T05:14:00.647Z,14.43
2023-09-25T05:19:22.684Z,14.45
2023-09-25T05:24:44.403Z,14.44
2023-09-25T05:30:08.156Z,14.58
2023-09-25T05:35:29.865Z,14.64
2023-09-25T05:40:51.547Z,14.87
2023-09-25T05:46:13.255Z,14.98
2023-09-25T05:51:35.064Z,15.11
2023-09-25T05:56:56.776Z,15.31
2023-09-25T06:02:18.540Z,15.50
2023-09-25T06:07:40.308Z,15.66
2023-09-25T06:13:02.048Z,15.90
2023-09-25T06:18:23.826Z,16.23
2023-09-25T06:23:45.623Z,16.62
2023-09-25T06:29:08.359Z,16.88
2023-09-25T06:34:30.150Z,17.22
2023-09-25T06:39:52.045Z,17.55
2023-09-25T06:45:13.837Z,17.85
2023-09-25T06:50:35.684Z,18.18
2023-09-25T06:55:58.394Z,19.23
2023-09-25T07:01:20.402Z,32.57
2023-09-25T07:06:42.285Z,36.07
2023-09-25T07:12:04.182Z,42.16
2023-09-25T07:17:26.325Z,42.57
2023-09-25T07:22:48.110Z,36.86
2023-09-25T07:28:09.894Z,30.91
2023-09-25T07:33:33.279Z,30.72
2023-09-25T07:38:55.094Z,31.77
2023-09-25T07:44:17.379Z,39.89
2023-09-25T07:49:39.732Z,46.11
2023-09-25T07:55:01.501Z,48.80
2023-09-25T08:00:23.433Z,43.86
2023-09-25T08:05:45.197Z,46.71
2023-09-25T08:11:06.914Z,52.52
2023-09-25T08:16:28.723Z,50.60
2023-09-25T08:21:51.692Z,47.97
2023-09-25T08:27:13.621Z,51.79
2023-09-25T08:32:36.199Z,52.90
2023-09-25T08:37:57.990Z,48.01
2023-09-25T08:43:21.235Z,50.19
2023-09-25T08:48:45.552Z,54.40
2023-09-25T08:54:08.412Z,49.34
2023-09-25T08:59:31.588Z,46.76
2023-09-25T09:04:53.335Z,48.36
2023-09-25T09:10:15.065Z,50.24
2023-09-25T09:15:37.900Z,54.00
2023-09-25T09:20:59.637Z,55.51
2023-09-25T09:26:21.462Z,51.63
2023-09-25T09:31:43.213Z,53.11
2023-09-25T09:37:07.322Z,45.90
2023-09-25T09:42:31.318Z,47.11
2023-09-25T09:47:56.099Z,51.33
2023-09-25T09:53:18.593Z,54.04
2023-09-25T09:58:40.939Z,55.61
2023-09-25T10:04:06.014Z,50.87
2023-09-25T10:09:28.046Z,54.68
2023-09-25T10:14:49.782Z,53.15
2023-09-25T10:20:30.049Z,52.01
2023-09-25T10:25:56.823Z,54.35
2023-09-25T10:31:23.421Z,49.97
2023-09-25T10:36:46.873Z,51.44
2023-09-25T10:42:08.839Z,48.28
2023-09-25T10:47:32.530Z,51.19
2023-09-25T10:52:54.284Z,52.58
2023-09-25T10:58:16.384Z,48.38
2023-09-25T11:03:38.322Z,50.22
2023-09-25T11:09:06.530Z,49.56
2023-09-25T11:14:37.134Z,49.85
2023-09-25T11:19:58.925Z,44.06
2023-09-25T11:25:20.760Z,42.53
2023-09-25T11:30:42.616Z,42.96
2023-09-25T11:36:10.663Z,40.25
2023-09-25T11:41:32.386Z,38.25
2023-09-25T11:46:54.222Z,37.52
2023-09-25T11:52:15.957Z,34.21
2023-09-25T11:57:39.061Z,35.61
2023-09-25T12:03:00.856Z,36.36
2023-09-25T12:08:22.886Z,36.18
2023-09-25T12:13:44.632Z,36.82
2023-09-25T12:19:06.476Z,34.61
2023-09-25T12:24:28.342Z,34.83
2023-09-25T12:29:50.400Z,33.94
2023-09-25T12:35:12.641Z,30.44
2023-09-25T12:40:34.507Z,31.06
2023-09-25T12:45:56.396Z,29.18
2023-09-25T12:51:18.315Z,28.53
2023-09-25T12:56:40.588Z,29.50
2023-09-25T13:02:02.741Z,29.32
2023-09-25T13:07:24.504Z,29.38
2023-09-25T13:12:46.261Z,26.79
2023-09-25T13:18:08.015Z,28.01
2023-09-25T13:23:29.794Z,27.94
2023-09-25T13:28:52.836Z,28.36
2023-09-25T13:34:14.562Z,28.62
2023-09-25T13:39:36.695Z,27.65
2023-09-25T13:44:58.469Z,27.09
2023-09-25T13:50:20.245Z,26.04
2023-09-25T13:55:41.953Z,26.24
2023-09-25T14:01:03.731Z,25.58
2023-09-25T14:06:25.575Z,24.56
2023-09-25T14:11:48.506Z,25.28
2023-09-25T14:17:10.210Z,25.56
2023-09-25T14:22:31.965Z,25.55
2023-09-25T14:27:53.719Z,25.23
2023-09-25T14:33:15.528Z,24.75
2023-09-25T14:38:37.267Z,24.97
2023-09-25T14:43:58.999Z,24.86
2023-09-25T14:49:20.776Z,24.08
2023-09-25T14:54:42.583Z,23.63
2023-09-25T15:00:05.609Z,24.36
2023-09-25T15:05:27.316Z,24.35
2023-09-25T15:10:49.065Z,23.67
2023-09-25T15:16:11.026Z,23.33
2023-09-25T15:21:33.074Z,23.40
2023-09-25T15:26:54.805Z,23.03
2023-09-25T15:32:16.574Z,22.89
2023-09-25T15:37:38.421Z,23.22
2023-09-25T15:43:00.235Z,23.02
2023-09-25T15:48:22.015Z,22.70
2023-09-25T15:53:43.778Z,22.66
2023-09-25T15:59:05.617Z,22.55
2023-09-25T16:04:27.408Z,22.06
2023-09-25T16:09:49.320Z,22.05
2023-09-25T16:15:11.274Z,22.03
2023-09-25T16:20:34.045Z,22.00
2023-09-25T16:25:55.885Z,21.89
2023-09-25T16:31:17.840Z,21.49
2023-09-25T16:36:39.687Z,21.51
2023-09-25T16:42:01.516Z,21.20
2023-09-25T16:47:23.576Z,21.03
2023-09-25T16:52:45.792Z,21.05
2023-09-25T16:58:07.538Z,21.11
2023-09-25T17:03:29.422Z,21.14
2023-09-25T17:08:51.221Z,21.02
2023-09-25T17:14:12.930Z,20.95
2023-09-25T17:19:34.679Z,20.77
2023-09-25T17:24:56.463Z,20.66
2023-09-25T17:30:18.321Z,20.51
2023-09-25T17:35:40.043Z,20.38
2023-09-25T17:41:02.092Z,20.41
2023-09-25T17:46:23.953Z,20.38
2023-09-25T17:51:45.820Z,20.28
2023-09-25T17:57:07.526Z,20.17
2023-09-25T18:02:29.274Z,20.00
2023-09-25T18:07:51.071Z,19.93
2023-09-25T18:13:12.888Z,19.83
2023-09-25T18:18:34.713Z,19.67
2023-09-25T18:23:56.567Z,19.52
2023-09-25T18:29:19.003Z,19.30
2023-09-25T18:34:40.726Z,19.24
2023-09-25T18:40:04.294Z,19.04
2023-09-25T18:45:26.346Z,19.25
2023-09-25T18:50:48.124Z,19.33
2023-09-25T18:56:09.886Z,19.30
2023-09-25T19:01:31.764Z,19.05
2023-09-25T19:06:53.558Z,19.20
2023-09-25T19:12:15.322Z,19.17
2023-09-25T19:17:37.111Z,19.10
2023-09-25T19:22:58.864Z,19.10
2023-09-25T19:28:20.618Z,19.07
2023-09-25T19:39:12.079Z,18.79
2023-09-25T19:44:33.831Z,18.58
2023-09-25T19:49:55.641Z,18.52
2023-09-25T19:55:17.402Z,18.47
2023-09-25T20:00:39.240Z,18.26
2023-09-25T20:06:01.060Z,18.14
2023-09-25T20:11:22.861Z,18.07
2023-09-25T20:16:44.682Z,18.06
2023-09-25T20:22:06.602Z,18.00
2023-09-25T20:27:28.467Z,17.79
2023-09-25T20:32:50.257Z,17.92
2023-09-25T20:38:12.007Z,17.98
2023-09-25T20:43:33.742Z,17.94
2023-09-25T20:48:55.947Z,17.88
2023-09-25T20:54:17.697Z,17.78
2023-09-25T20:59:39.421Z,17.71
2023-09-25T21:05:01.196Z,17.48
2023-09-25T21:10:22.982Z,17.54
2023-09-25T21:15:44.773Z,17.56
2023-09-25T21:21:06.519Z,17.51
2023-09-25T21:26:28.248Z,17.33
2023-09-25T21:31:50.020Z,17.38
2023-09-25T21:37:11.869Z,17.14
2023-09-25T21:42:33.637Z,17.21
2023-09-25T21:47:55.699Z,17.26
2023-09-25T21:53:17.483Z,17.21
2023-09-25T21:58:39.190Z,17.29
2023-09-25T22:04:01.014Z,17.41
2023-09-25T22:09:22.867Z,17.58
2023-09-25T22:14:44.628Z,17.51
2023-09-25T22:20:06.823Z,17.73
2023-09-25T22:25:28.535Z,18.02
2023-09-25T22:30:50.320Z,18.22
2023-09-25T22:36:12.234Z,18.35
2023-09-25T22:41:33.987Z,18.27
2023-09-25T22:46:56.022Z,18.29
2023-09-25T22:52:17.835Z,18.41
2023-09-25T22:57:39.657Z,18.36
2023-09-25T23:03:01.524Z,18.38
2023-09-25T23:08:24.040Z,18.30
2023-09-25T23:13:45.855Z,18.29
2023-09-25T23:19:07.629Z,18.39
2023-09-25T23:24:29.328Z,18.35
2023-09-25T23:29:51.106Z,18.21
2023-09-25T23:35:14.568Z,18.02
2023-09-25T23:40:36.324Z,18.08
2023-09-25T23:45:58.093Z,17.74
2023-09-25T23:51:19.940Z,17.63
2023-09-25T23:56:41.629Z,17.64
